sensor_id;sensor_type;location;lat;lon;timestamp;temperature;humidity
24560;DHT22;12727;49.934;8.656;2022-09-29T00:00:26;7.30;99.90
24560;DHT22;12727;49.934;8.656;2022-09-29T00:02:52;7.30;99.90
24560;DHT22;12727;49.934;8.656;2022-09-29T00:05:18;7.20;99.90
24560;DHT22;12727;49.934;8.656;2022-09-29T00:07:43;7.00;99.90
24560;DHT22;12727;49.934;8.656;2022-09-29T00:10:09;7.20;99.90
24560;DHT22;12727;49.934;8.656;2022-09-29T00:12:35;7.40;99.90
24560;DHT22;12727;49.934;8.656;2022-09-29T00:15:00;7.40;99.90
24560;DHT22;12727;49.934;8.656;2022-09-29T00:17:26;7.40;99.90
24560;DHT22;12727;49.934;8.656;2022-09-29T00:19:51;7.40;99.90
24560;DHT22;12727;49.934;8.656;2022-09-29T00:22:17;7.10;99.90
24560;DHT22;12727;49.934;8.656;2022-09-29T00:24:42;6.80;99.90
24560;DHT22;12727;49.934;8.656;2022-09-29T00:27:08;6.90;99.90
24560;DHT22;12727;49.934;8.656;2022-09-29T00:29:33;6.80;99.90
24560;DHT22;12727;49.934;8.656;2022-09-29T00:31:59;6.70;99.90
24560;DHT22;12727;49.934;8.656;2022-09-29T00:34:25;6.70;99.90
24560;DHT22;12727;49.934;8.656;2022-09-29T00:36:50;6.80;99.90
24560;DHT22;12727;49.934;8.656;2022-09-29T00:39:16;6.70;99.90
24560;DHT22;12727;49.934;8.656;2022-09-29T00:41:41;6.70;99.90
24560;DHT22;12727;49.934;8.656;2022-09-29T00:54:35;7.50;99.90
24560;DHT22;12727;49.934;8.656;2022-09-29T00:57:03;7.50;99.90
24560;DHT22;12727;49.934;8.656;2022-09-29T00:59:39;7.60;99.90
24560;DHT22;12727;49.934;8.656;2022-09-29T01:02:07;7.60;99.90
24560;DHT22;12727;49.934;8.656;2022-09-29T01:04:33;7.70;99.90
24560;DHT22;12727;49.934;8.656;2022-09-29T01:06:59;7.60;99.90
24560;DHT22;12727;49.934;8.656;2022-09-29T01:09:28;7.30;99.90
24560;DHT22;12727;49.934;8.656;2022-09-29T01:11:56;7.30;99.90
24560;DHT22;12727;49.934;8.656;2022-09-29T01:14:23;7.30;99.90
24560;DHT22;12727;49.934;8.656;2022-09-29T01:16:49;6.90;99.90
24560;DHT22;12727;49.934;8.656;2022-09-29T01:19:32;6.70;99.90
24560;DHT22;12727;49.934;8.656;2022-09-29T01:28:00;7.00;99.90
24560;DHT22;12727;49.934;8.656;2022-09-29T01:30:50;7.00;99.90
24560;DHT22;12727;49.934;8.656;2022-09-29T01:36:34;7.20;99.90
24560;DHT22;12727;49.934;8.656;2022-09-29T01:39:12;7.30;99.90
24560;DHT22;12727;49.934;8.656;2022-09-29T01:42:07;7.00;99.90
24560;DHT22;12727;49.934;8.656;2022-09-29T01:44:51;6.90;99.90
24560;DHT22;12727;49.934;8.656;2022-09-29T01:47:39;6.80;99.90
24560;DHT22;12727;49.934;8.656;2022-09-29T01:50:12;6.70;99.90
24560;DHT22;12727;49.934;8.656;2022-09-29T01:52:45;6.50;99.90
24560;DHT22;12727;49.934;8.656;2022-09-29T01:55:17;6.40;99.90
24560;DHT22;12727;49.934;8.656;2022-09-29T01:57:49;6.40;99.90
24560;DHT22;12727;49.934;8.656;2022-09-29T02:00:18;6.40;99.90
24560;DHT22;12727;49.934;8.656;2022-09-29T02:06:03;6.30;99.90
24560;DHT22;12727;49.934;8.656;2022-09-29T02:08:53;6.20;99.90
24560;DHT22;12727;49.934;8.656;2022-09-29T02:11:19;6.40;99.90
24560;DHT22;12727;49.934;8.656;2022-09-29T02:13:54;6.20;99.90
24560;DHT22;12727;49.934;8.656;2022-09-29T02:16:25;6.00;99.90
24560;DHT22;12727;49.934;8.656;2022-09-29T02:18:55;5.80;99.90
24560;DHT22;12727;49.934;8.656;2022-09-29T02:21:22;5.60;99.90
24560;DHT22;12727;49.934;8.656;2022-09-29T02:23:50;5.50;99.90
24560;DHT22;12727;49.934;8.656;2022-09-29T02:26:17;5.40;99.90
24560;DHT22;12727;49.934;8.656;2022-09-29T02:28:44;5.20;99.90
24560;DHT22;12727;49.934;8.656;2022-09-29T02:31:10;5.20;99.90
24560;DHT22;12727;49.934;8.656;2022-09-29T02:33:35;5.20;99.90
24560;DHT22;12727;49.934;8.656;2022-09-29T02:45:20;5.50;99.90
24560;DHT22;12727;49.934;8.656;2022-09-29T02:50:35;5.70;99.90
24560;DHT22;12727;49.934;8.656;2022-09-29T02:58:50;5.80;99.90
24560;DHT22;12727;49.934;8.656;2022-09-29T03:01:16;5.80;99.90
24560;DHT22;12727;49.934;8.656;2022-09-29T03:03:42;5.90;99.90
24560;DHT22;12727;49.934;8.656;2022-09-29T03:06:09;5.90;99.90
24560;DHT22;12727;49.934;8.656;2022-09-29T03:08:35;6.10;99.90
24560;DHT22;12727;49.934;8.656;2022-09-29T03:11:00;6.40;99.90
24560;DHT22;12727;49.934;8.656;2022-09-29T03:13:26;6.70;99.90
24560;DHT22;12727;49.934;8.656;2022-09-29T03:15:52;6.80;99.90
24560;DHT22;12727;49.934;8.656;2022-09-29T03:18:17;6.70;99.90
24560;DHT22;12727;49.934;8.656;2022-09-29T03:20:43;6.50;99.90
24560;DHT22;12727;49.934;8.656;2022-09-29T03:23:08;6.60;99.90
24560;DHT22;12727;49.934;8.656;2022-09-29T03:25:34;6.60;99.90
24560;DHT22;12727;49.934;8.656;2022-09-29T03:28:00;6.70;99.90
24560;DHT22;12727;49.934;8.656;2022-09-29T03:30:25;6.70;99.90
24560;DHT22;12727;49.934;8.656;2022-09-29T03:32:51;6.70;99.90
24560;DHT22;12727;49.934;8.656;2022-09-29T03:35:16;6.40;99.90
24560;DHT22;12727;49.934;8.656;2022-09-29T03:37:42;6.30;99.90
24560;DHT22;12727;49.934;8.656;2022-09-29T03:40:08;6.10;99.90
24560;DHT22;12727;49.934;8.656;2022-09-29T03:42:34;6.00;99.90
24560;DHT22;12727;49.934;8.656;2022-09-29T03:44:59;6.40;99.90
24560;DHT22;12727;49.934;8.656;2022-09-29T03:47:25;6.70;99.90
24560;DHT22;12727;49.934;8.656;2022-09-29T03:49:51;6.80;99.90
24560;DHT22;12727;49.934;8.656;2022-09-29T03:52:16;6.70;99.90
24560;DHT22;12727;49.934;8.656;2022-09-29T03:54:43;6.70;99.90
24560;DHT22;12727;49.934;8.656;2022-09-29T03:57:08;6.80;99.90
24560;DHT22;12727;49.934;8.656;2022-09-29T03:59:34;6.80;99.90
24560;DHT22;12727;49.934;8.656;2022-09-29T04:02:00;6.90;99.90
24560;DHT22;12727;49.934;8.656;2022-09-29T04:04:25;6.90;99.90
24560;DHT22;12727;49.934;8.656;2022-09-29T04:06:51;6.80;99.90
24560;DHT22;12727;49.934;8.656;2022-09-29T04:09:16;6.80;99.90
24560;DHT22;12727;49.934;8.656;2022-09-29T04:11:42;6.80;99.90
24560;DHT22;12727;49.934;8.656;2022-09-29T04:14:07;6.90;99.90
24560;DHT22;12727;49.934;8.656;2022-09-29T04:16:33;7.10;99.90
24560;DHT22;12727;49.934;8.656;2022-09-29T04:18:59;7.20;99.90
24560;DHT22;12727;49.934;8.656;2022-09-29T04:21:24;7.30;99.90
24560;DHT22;12727;49.934;8.656;2022-09-29T04:23:50;7.50;99.90
24560;DHT22;12727;49.934;8.656;2022-09-29T04:26:15;7.60;99.90
24560;DHT22;12727;49.934;8.656;2022-09-29T04:28:41;7.70;99.90
24560;DHT22;12727;49.934;8.656;2022-09-29T04:31:07;7.80;99.90
24560;DHT22;12727;49.934;8.656;2022-09-29T04:33:34;7.80;99.90
24560;DHT22;12727;49.934;8.656;2022-09-29T04:35:59;7.60;99.90
24560;DHT22;12727;49.934;8.656;2022-09-29T04:38:25;7.20;99.90
24560;DHT22;12727;49.934;8.656;2022-09-29T04:40:51;7.10;99.90
24560;DHT22;12727;49.934;8.656;2022-09-29T04:43:17;7.40;99.90
24560;DHT22;12727;49.934;8.656;2022-09-29T04:45:42;7.70;99.90
24560;DHT22;12727;49.934;8.656;2022-09-29T04:48:08;7.80;99.90
24560;DHT22;12727;49.934;8.656;2022-09-29T04:50:33;7.80;99.90
24560;DHT22;12727;49.934;8.656;2022-09-29T04:52:59;7.60;99.90
24560;DHT22;12727;49.934;8.656;2022-09-29T04:55:25;7.80;99.90
24560;DHT22;12727;49.934;8.656;2022-09-29T04:57:51;8.00;99.90
24560;DHT22;12727;49.934;8.656;2022-09-29T05:00:17;8.00;99.90
24560;DHT22;12727;49.934;8.656;2022-09-29T05:02:43;8.10;99.90
24560;DHT22;12727;49.934;8.656;2022-09-29T05:05:09;8.10;99.90
24560;DHT22;12727;49.934;8.656;2022-09-29T05:07:38;8.00;99.90
24560;DHT22;12727;49.934;8.656;2022-09-29T05:10:07;7.60;99.90
24560;DHT22;12727;49.934;8.656;2022-09-29T05:12:33;7.40;99.90
24560;DHT22;12727;49.934;8.656;2022-09-29T05:14:59;7.20;99.90
24560;DHT22;12727;49.934;8.656;2022-09-29T05:17:25;7.40;99.90
24560;DHT22;12727;49.934;8.656;2022-09-29T05:19:51;7.50;99.90
24560;DHT22;12727;49.934;8.656;2022-09-29T05:22:16;7.70;99.90
24560;DHT22;12727;49.934;8.656;2022-09-29T05:24:49;7.90;99.90
24560;DHT22;12727;49.934;8.656;2022-09-29T05:27:15;7.80;99.90
24560;DHT22;12727;49.934;8.656;2022-09-29T05:29:41;7.90;99.90
24560;DHT22;12727;49.934;8.656;2022-09-29T05:32:06;7.80;99.90
24560;DHT22;12727;49.934;8.656;2022-09-29T05:34:32;7.90;99.90
24560;DHT22;12727;49.934;8.656;2022-09-29T05:36:57;8.00;99.90
24560;DHT22;12727;49.934;8.656;2022-09-29T05:39:23;8.20;99.90
24560;DHT22;12727;49.934;8.656;2022-09-29T05:41:48;8.40;99.90
24560;DHT22;12727;49.934;8.656;2022-09-29T05:44:14;8.30;99.90
24560;DHT22;12727;49.934;8.656;2022-09-29T05:46:41;8.10;99.90
24560;DHT22;12727;49.934;8.656;2022-09-29T05:49:06;8.00;99.90
24560;DHT22;12727;49.934;8.656;2022-09-29T05:51:32;8.10;99.90
24560;DHT22;12727;49.934;8.656;2022-09-29T05:53:57;8.10;99.90
24560;DHT22;12727;49.934;8.656;2022-09-29T05:56:25;8.10;99.90
24560;DHT22;12727;49.934;8.656;2022-09-29T05:58:51;7.90;99.90
24560;DHT22;12727;49.934;8.656;2022-09-29T06:01:19;7.90;99.90
24560;DHT22;12727;49.934;8.656;2022-09-29T06:03:46;8.00;99.90
24560;DHT22;12727;49.934;8.656;2022-09-29T06:06:17;8.10;99.90
24560;DHT22;12727;49.934;8.656;2022-09-29T06:08:43;8.10;99.90
24560;DHT22;12727;49.934;8.656;2022-09-29T06:11:17;8.10;99.90
24560;DHT22;12727;49.934;8.656;2022-09-29T06:13:46;8.20;99.90
24560;DHT22;12727;49.934;8.656;2022-09-29T06:16:12;8.00;99.90
24560;DHT22;12727;49.934;8.656;2022-09-29T06:18:38;7.70;99.90
24560;DHT22;12727;49.934;8.656;2022-09-29T06:21:06;7.60;99.90
24560;DHT22;12727;49.934;8.656;2022-09-29T06:23:32;7.50;99.90
24560;DHT22;12727;49.934;8.656;2022-09-29T06:25:59;7.50;99.90
24560;DHT22;12727;49.934;8.656;2022-09-29T06:28:27;7.70;99.90
24560;DHT22;12727;49.934;8.656;2022-09-29T06:31:00;7.90;99.90
24560;DHT22;12727;49.934;8.656;2022-09-29T06:33:28;8.10;99.90
24560;DHT22;12727;49.934;8.656;2022-09-29T06:35:54;8.10;99.90
24560;DHT22;12727;49.934;8.656;2022-09-29T06:38:38;8.30;99.90
24560;DHT22;12727;49.934;8.656;2022-09-29T06:41:04;8.50;99.90
24560;DHT22;12727;49.934;8.656;2022-09-29T06:43:31;8.80;99.90
24560;DHT22;12727;49.934;8.656;2022-09-29T06:45:57;8.60;99.90
24560;DHT22;12727;49.934;8.656;2022-09-29T06:48:23;8.50;99.90
24560;DHT22;12727;49.934;8.656;2022-09-29T06:50:49;8.60;99.90
24560;DHT22;12727;49.934;8.656;2022-09-29T06:53:15;8.80;99.90
24560;DHT22;12727;49.934;8.656;2022-09-29T06:55:40;8.70;99.90
24560;DHT22;12727;49.934;8.656;2022-09-29T06:58:06;8.70;99.90
24560;DHT22;12727;49.934;8.656;2022-09-29T07:00:31;8.50;99.90
24560;DHT22;12727;49.934;8.656;2022-09-29T07:02:58;8.40;99.90
24560;DHT22;12727;49.934;8.656;2022-09-29T07:05:24;8.30;99.90
24560;DHT22;12727;49.934;8.656;2022-09-29T07:07:50;8.30;99.90
24560;DHT22;12727;49.934;8.656;2022-09-29T07:10:16;8.30;99.90
24560;DHT22;12727;49.934;8.656;2022-09-29T07:12:42;8.40;99.90
24560;DHT22;12727;49.934;8.656;2022-09-29T07:15:12;8.30;99.90
24560;DHT22;12727;49.934;8.656;2022-09-29T07:17:38;8.40;99.90
24560;DHT22;12727;49.934;8.656;2022-09-29T07:20:04;8.40;99.90
24560;DHT22;12727;49.934;8.656;2022-09-29T07:22:29;8.60;99.90
24560;DHT22;12727;49.934;8.656;2022-09-29T07:24:55;8.80;99.90
24560;DHT22;12727;49.934;8.656;2022-09-29T07:27:21;8.80;99.90
24560;DHT22;12727;49.934;8.656;2022-09-29T07:29:49;8.70;99.90
24560;DHT22;12727;49.934;8.656;2022-09-29T07:32:16;8.70;99.90
24560;DHT22;12727;49.934;8.656;2022-09-29T07:34:42;8.70;99.90
24560;DHT22;12727;49.934;8.656;2022-09-29T07:37:07;8.70;99.90
24560;DHT22;12727;49.934;8.656;2022-09-29T07:39:33;8.70;99.90
24560;DHT22;12727;49.934;8.656;2022-09-29T07:41:58;8.80;99.90
24560;DHT22;12727;49.934;8.656;2022-09-29T07:44:24;8.80;99.90
24560;DHT22;12727;49.934;8.656;2022-09-29T07:46:50;8.80;99.90
24560;DHT22;12727;49.934;8.656;2022-09-29T07:49:16;8.80;99.90
24560;DHT22;12727;49.934;8.656;2022-09-29T07:51:41;8.60;99.90
24560;DHT22;12727;49.934;8.656;2022-09-29T07:54:07;8.50;99.90
24560;DHT22;12727;49.934;8.656;2022-09-29T07:56:33;8.70;99.90
24560;DHT22;12727;49.934;8.656;2022-09-29T07:59:00;8.60;99.90
24560;DHT22;12727;49.934;8.656;2022-09-29T08:01:27;8.60;99.90
24560;DHT22;12727;49.934;8.656;2022-09-29T08:03:54;8.80;99.90
24560;DHT22;12727;49.934;8.656;2022-09-29T08:06:21;8.80;99.90
24560;DHT22;12727;49.934;8.656;2022-09-29T08:08:47;8.90;99.90
24560;DHT22;12727;49.934;8.656;2022-09-29T08:11:17;8.80;99.90
24560;DHT22;12727;49.934;8.656;2022-09-29T08:13:45;8.80;99.90
24560;DHT22;12727;49.934;8.656;2022-09-29T08:16:13;8.70;99.90
24560;DHT22;12727;49.934;8.656;2022-09-29T08:18:40;8.70;99.90
24560;DHT22;12727;49.934;8.656;2022-09-29T08:21:06;8.70;99.90
24560;DHT22;12727;49.934;8.656;2022-09-29T08:23:36;8.60;99.90
24560;DHT22;12727;49.934;8.656;2022-09-29T08:26:14;8.60;99.90
24560;DHT22;12727;49.934;8.656;2022-09-29T08:28:40;8.70;99.90
24560;DHT22;12727;49.934;8.656;2022-09-29T08:31:09;8.90;99.90
24560;DHT22;12727;49.934;8.656;2022-09-29T08:33:35;9.00;99.90
24560;DHT22;12727;49.934;8.656;2022-09-29T08:36:01;9.10;99.90
24560;DHT22;12727;49.934;8.656;2022-09-29T08:38:30;9.30;99.90
24560;DHT22;12727;49.934;8.656;2022-09-29T08:40:56;9.30;99.90
24560;DHT22;12727;49.934;8.656;2022-09-29T08:43:36;9.40;99.90
24560;DHT22;12727;49.934;8.656;2022-09-29T08:48:46;9.70;99.90
24560;DHT22;12727;49.934;8.656;2022-09-29T08:51:40;9.70;99.90
24560;DHT22;12727;49.934;8.656;2022-09-29T08:56:43;9.90;99.90
24560;DHT22;12727;49.934;8.656;2022-09-29T08:59:10;10.10;99.90
24560;DHT22;12727;49.934;8.656;2022-09-29T09:01:53;10.20;99.90
24560;DHT22;12727;49.934;8.656;2022-09-29T09:12:31;10.60;99.90
24560;DHT22;12727;49.934;8.656;2022-09-29T09:15:12;10.80;99.90
24560;DHT22;12727;49.934;8.656;2022-09-29T09:18:02;10.50;99.90
24560;DHT22;12727;49.934;8.656;2022-09-29T09:20:43;10.40;99.90
24560;DHT22;12727;49.934;8.656;2022-09-29T09:23:38;10.40;99.90
24560;DHT22;12727;49.934;8.656;2022-09-29T09:26:01;10.50;99.90
24560;DHT22;12727;49.934;8.656;2022-09-29T09:28:39;10.50;99.90
24560;DHT22;12727;49.934;8.656;2022-09-29T09:31:21;10.50;99.90
24560;DHT22;12727;49.934;8.656;2022-09-29T09:34:12;10.60;99.90
24560;DHT22;12727;49.934;8.656;2022-09-29T09:36:47;10.60;99.90
24560;DHT22;12727;49.934;8.656;2022-09-29T09:39:37;10.50;99.90
24560;DHT22;12727;49.934;8.656;2022-09-29T09:42:18;10.60;99.90
24560;DHT22;12727;49.934;8.656;2022-09-29T09:44:57;10.80;99.90
24560;DHT22;12727;49.934;8.656;2022-09-29T09:47:33;10.80;99.90
24560;DHT22;12727;49.934;8.656;2022-09-29T09:50:12;10.60;99.90
24560;DHT22;12727;49.934;8.656;2022-09-29T09:55:18;10.90;99.90
24560;DHT22;12727;49.934;8.656;2022-09-29T10:03:11;10.90;99.90
24560;DHT22;12727;49.934;8.656;2022-09-29T10:05:40;11.20;99.90
24560;DHT22;12727;49.934;8.656;2022-09-29T10:08:22;11.20;99.90
24560;DHT22;12727;49.934;8.656;2022-09-29T10:10:48;11.10;99.90
24560;DHT22;12727;49.934;8.656;2022-09-29T10:13:15;11.20;99.90
24560;DHT22;12727;49.934;8.656;2022-09-29T10:23:55;11.60;99.90
24560;DHT22;12727;49.934;8.656;2022-09-29T10:26:23;11.80;99.90
24560;DHT22;12727;49.934;8.656;2022-09-29T10:29:00;12.00;99.90
24560;DHT22;12727;49.934;8.656;2022-09-29T10:31:28;12.00;99.90
24560;DHT22;12727;49.934;8.656;2022-09-29T10:34:15;12.30;99.90
24560;DHT22;12727;49.934;8.656;2022-09-29T10:42:01;12.90;99.90
24560;DHT22;12727;49.934;8.656;2022-09-29T10:44:32;12.70;99.90
24560;DHT22;12727;49.934;8.656;2022-09-29T10:47:06;12.70;99.90
24560;DHT22;12727;49.934;8.656;2022-09-29T10:49:40;12.60;99.90
24560;DHT22;12727;49.934;8.656;2022-09-29T10:52:20;12.50;99.90
24560;DHT22;12727;49.934;8.656;2022-09-29T10:54:57;12.50;99.90
24560;DHT22;12727;49.934;8.656;2022-09-29T10:57:29;12.60;99.90
24560;DHT22;12727;49.934;8.656;2022-09-29T10:59:56;12.40;99.90
24560;DHT22;12727;49.934;8.656;2022-09-29T11:02:35;12.40;99.90
24560;DHT22;12727;49.934;8.656;2022-09-29T11:05:10;12.60;99.90
24560;DHT22;12727;49.934;8.656;2022-09-29T11:07:48;12.50;99.90
24560;DHT22;12727;49.934;8.656;2022-09-29T11:12:55;12.10;99.90
24560;DHT22;12727;49.934;8.656;2022-09-29T11:15:39;12.20;99.90
24560;DHT22;12727;49.934;8.656;2022-09-29T11:20:46;12.30;99.90
24560;DHT22;12727;49.934;8.656;2022-09-29T11:23:38;12.50;99.90
24560;DHT22;12727;49.934;8.656;2022-09-29T11:26:18;12.40;99.90
24560;DHT22;12727;49.934;8.656;2022-09-29T11:36:42;12.40;99.90
24560;DHT22;12727;49.934;8.656;2022-09-29T11:44:59;12.40;99.90
24560;DHT22;12727;49.934;8.656;2022-09-29T11:47:51;12.60;99.90
24560;DHT22;12727;49.934;8.656;2022-09-29T11:50:51;12.80;99.90
24560;DHT22;12727;49.934;8.656;2022-09-29T12:16:00;13.20;99.90
24560;DHT22;12727;49.934;8.656;2022-09-29T12:21:13;13.90;99.90
24560;DHT22;12727;49.934;8.656;2022-09-29T12:23:42;14.00;99.90
24560;DHT22;12727;49.934;8.656;2022-09-29T12:26:20;14.00;99.90
24560;DHT22;12727;49.934;8.656;2022-09-29T12:31:33;13.80;99.90
24560;DHT22;12727;49.934;8.656;2022-09-29T12:34:15;13.70;99.90
24560;DHT22;12727;49.934;8.656;2022-09-29T12:36:50;13.80;99.90
24560;DHT22;12727;49.934;8.656;2022-09-29T12:42:19;14.10;99.90
24560;DHT22;12727;49.934;8.656;2022-09-29T12:55:45;14.00;99.90
24560;DHT22;12727;49.934;8.656;2022-09-29T12:58:27;14.00;99.90
24560;DHT22;12727;49.934;8.656;2022-09-29T13:01:08;13.90;99.90
24560;DHT22;12727;49.934;8.656;2022-09-29T13:10:09;14.00;99.40
24560;DHT22;12727;49.934;8.656;2022-09-29T13:28:37;14.40;98.70
24560;DHT22;12727;49.934;8.656;2022-09-29T13:31:07;14.30;98.90
24560;DHT22;12727;49.934;8.656;2022-09-29T13:33:35;14.40;98.70
24560;DHT22;12727;49.934;8.656;2022-09-29T13:36:02;14.40;97.40
24560;DHT22;12727;49.934;8.656;2022-09-29T13:38:33;14.30;96.60
24560;DHT22;12727;49.934;8.656;2022-09-29T13:54:38;15.00;95.60
24560;DHT22;12727;49.934;8.656;2022-09-29T13:57:06;14.90;94.90
24560;DHT22;12727;49.934;8.656;2022-09-29T14:02:34;15.00;94.10
24560;DHT22;12727;49.934;8.656;2022-09-29T14:05:51;15.00;93.50
24560;DHT22;12727;49.934;8.656;2022-09-29T14:10:36;15.00;92.00
24560;DHT22;12727;49.934;8.656;2022-09-29T14:15:45;14.70;90.30
24560;DHT22;12727;49.934;8.656;2022-09-29T14:18:22;14.70;90.20
24560;DHT22;12727;49.934;8.656;2022-09-29T14:21:05;14.70;90.80
24560;DHT22;12727;49.934;8.656;2022-09-29T14:23:49;14.70;90.90
24560;DHT22;12727;49.934;8.656;2022-09-29T14:26:42;14.60;90.70
24560;DHT22;12727;49.934;8.656;2022-09-29T14:29:17;14.60;90.80
24560;DHT22;12727;49.934;8.656;2022-09-29T14:31:48;14.50;90.90
24560;DHT22;12727;49.934;8.656;2022-09-29T14:34:17;14.50;90.90
24560;DHT22;12727;49.934;8.656;2022-09-29T14:36:44;14.50;90.70
24560;DHT22;12727;49.934;8.656;2022-09-29T14:39:13;14.40;91.50
24560;DHT22;12727;49.934;8.656;2022-09-29T14:41:44;14.50;91.50
24560;DHT22;12727;49.934;8.656;2022-09-29T14:44:29;14.50;91.60
24560;DHT22;12727;49.934;8.656;2022-09-29T14:47:38;14.50;91.10
24560;DHT22;12727;49.934;8.656;2022-09-29T14:50:34;14.40;92.20
24560;DHT22;12727;49.934;8.656;2022-09-29T15:03:47;14.60;91.40
24560;DHT22;12727;49.934;8.656;2022-09-29T15:06:20;14.70;91.30
24560;DHT22;12727;49.934;8.656;2022-09-29T15:09:10;14.80;90.80
24560;DHT22;12727;49.934;8.656;2022-09-29T15:11:56;14.70;91.20
24560;DHT22;12727;49.934;8.656;2022-09-29T15:14:30;14.60;91.60
24560;DHT22;12727;49.934;8.656;2022-09-29T15:17:33;14.70;91.10
24560;DHT22;12727;49.934;8.656;2022-09-29T15:20:17;14.60;90.60
24560;DHT22;12727;49.934;8.656;2022-09-29T15:25:43;14.50;91.30
24560;DHT22;12727;49.934;8.656;2022-09-29T15:30:35;14.60;92.00
24560;DHT22;12727;49.934;8.656;2022-09-29T15:33:28;14.60;91.20
24560;DHT22;12727;49.934;8.656;2022-09-29T15:36:03;14.60;90.70
24560;DHT22;12727;49.934;8.656;2022-09-29T15:38:38;14.70;91.00
24560;DHT22;12727;49.934;8.656;2022-09-29T15:41:14;14.60;91.00
24560;DHT22;12727;49.934;8.656;2022-09-29T15:44:22;14.60;90.50
24560;DHT22;12727;49.934;8.656;2022-09-29T15:46:49;14.60;90.00
24560;DHT22;12727;49.934;8.656;2022-09-29T15:49:21;14.50;88.60
24560;DHT22;12727;49.934;8.656;2022-09-29T15:52:11;14.50;89.00
24560;DHT22;12727;49.934;8.656;2022-09-29T15:54:39;14.50;90.30
24560;DHT22;12727;49.934;8.656;2022-09-29T16:03:30;14.50;90.80
24560;DHT22;12727;49.934;8.656;2022-09-29T16:06:18;14.40;90.40
24560;DHT22;12727;49.934;8.656;2022-09-29T16:08:46;14.30;91.60
24560;DHT22;12727;49.934;8.656;2022-09-29T16:11:23;14.40;91.80
24560;DHT22;12727;49.934;8.656;2022-09-29T16:13:53;14.30;92.00
24560;DHT22;12727;49.934;8.656;2022-09-29T16:16:33;14.20;92.10
24560;DHT22;12727;49.934;8.656;2022-09-29T16:19:05;14.10;92.20
24560;DHT22;12727;49.934;8.656;2022-09-29T16:21:36;14.00;92.60
24560;DHT22;12727;49.934;8.656;2022-09-29T16:24:12;13.90;92.80
24560;DHT22;12727;49.934;8.656;2022-09-29T16:26:42;13.70;93.10
24560;DHT22;12727;49.934;8.656;2022-09-29T16:31:39;13.60;95.00
24560;DHT22;12727;49.934;8.656;2022-09-29T16:39:18;13.20;97.80
24560;DHT22;12727;49.934;8.656;2022-09-29T16:41:50;13.00;98.70
24560;DHT22;12727;49.934;8.656;2022-09-29T16:44:26;12.90;99.90
24560;DHT22;12727;49.934;8.656;2022-09-29T16:46:59;12.90;99.90
24560;DHT22;12727;49.934;8.656;2022-09-29T16:49:32;12.70;99.90
24560;DHT22;12727;49.934;8.656;2022-09-29T16:52:10;12.60;99.90
24560;DHT22;12727;49.934;8.656;2022-09-29T16:54:42;12.40;99.90
24560;DHT22;12727;49.934;8.656;2022-09-29T16:57:30;12.40;99.90
24560;DHT22;12727;49.934;8.656;2022-09-29T16:59:57;12.50;99.90
24560;DHT22;12727;49.934;8.656;2022-09-29T17:02:25;12.40;99.90
24560;DHT22;12727;49.934;8.656;2022-09-29T17:04:51;12.20;99.90
24560;DHT22;12727;49.934;8.656;2022-09-29T17:07:19;12.00;99.90
24560;DHT22;12727;49.934;8.656;2022-09-29T17:09:57;12.20;99.90
24560;DHT22;12727;49.934;8.656;2022-09-29T17:12:24;12.30;99.90
24560;DHT22;12727;49.934;8.656;2022-09-29T17:14:51;12.00;99.90
24560;DHT22;12727;49.934;8.656;2022-09-29T17:17:20;11.90;99.90
24560;DHT22;12727;49.934;8.656;2022-09-29T17:19:50;12.00;99.90
24560;DHT22;12727;49.934;8.656;2022-09-29T17:24:56;11.80;99.90
24560;DHT22;12727;49.934;8.656;2022-09-29T17:27:22;11.60;99.90
24560;DHT22;12727;49.934;8.656;2022-09-29T17:30:07;11.40;99.90
24560;DHT22;12727;49.934;8.656;2022-09-29T17:32:33;11.40;99.90
24560;DHT22;12727;49.934;8.656;2022-09-29T17:35:00;11.40;99.90
24560;DHT22;12727;49.934;8.656;2022-09-29T17:37:26;11.30;99.90
24560;DHT22;12727;49.934;8.656;2022-09-29T17:39:52;11.30;99.90
24560;DHT22;12727;49.934;8.656;2022-09-29T17:42:18;11.30;99.90
24560;DHT22;12727;49.934;8.656;2022-09-29T17:44:43;11.20;99.90
24560;DHT22;12727;49.934;8.656;2022-09-29T17:47:13;11.10;99.90
24560;DHT22;12727;49.934;8.656;2022-09-29T17:49:43;11.00;99.90
24560;DHT22;12727;49.934;8.656;2022-09-29T17:52:09;10.90;99.90
24560;DHT22;12727;49.934;8.656;2022-09-29T17:54:40;10.70;99.90
24560;DHT22;12727;49.934;8.656;2022-09-29T17:57:05;10.60;99.90
24560;DHT22;12727;49.934;8.656;2022-09-29T17:59:31;10.50;99.90
24560;DHT22;12727;49.934;8.656;2022-09-29T18:02:00;10.40;99.90
24560;DHT22;12727;49.934;8.656;2022-09-29T18:04:26;10.40;99.90
24560;DHT22;12727;49.934;8.656;2022-09-29T18:06:51;10.20;99.90
24560;DHT22;12727;49.934;8.656;2022-09-29T18:09:17;10.10;99.90
24560;DHT22;12727;49.934;8.656;2022-09-29T18:11:43;10.10;99.90
24560;DHT22;12727;49.934;8.656;2022-09-29T18:14:10;10.20;99.90
24560;DHT22;12727;49.934;8.656;2022-09-29T18:16:35;10.30;99.90
24560;DHT22;12727;49.934;8.656;2022-09-29T18:19:01;10.20;99.90
24560;DHT22;12727;49.934;8.656;2022-09-29T18:21:27;9.90;99.90
24560;DHT22;12727;49.934;8.656;2022-09-29T18:23:53;9.80;99.90
24560;DHT22;12727;49.934;8.656;2022-09-29T18:26:19;9.60;99.90
24560;DHT22;12727;49.934;8.656;2022-09-29T18:28:45;9.60;99.90
24560;DHT22;12727;49.934;8.656;2022-09-29T18:31:24;9.50;99.90
24560;DHT22;12727;49.934;8.656;2022-09-29T18:33:52;9.40;99.90
24560;DHT22;12727;49.934;8.656;2022-09-29T18:36:19;9.30;99.90
24560;DHT22;12727;49.934;8.656;2022-09-29T18:38:44;9.10;99.90
24560;DHT22;12727;49.934;8.656;2022-09-29T18:41:16;9.00;99.90
24560;DHT22;12727;49.934;8.656;2022-09-29T18:43:42;9.00;99.90
24560;DHT22;12727;49.934;8.656;2022-09-29T18:46:08;8.90;99.90
24560;DHT22;12727;49.934;8.656;2022-09-29T18:48:35;8.90;99.90
24560;DHT22;12727;49.934;8.656;2022-09-29T18:51:01;8.80;99.90
24560;DHT22;12727;49.934;8.656;2022-09-29T18:53:26;8.60;99.90
24560;DHT22;12727;49.934;8.656;2022-09-29T18:55:56;8.60;99.90
24560;DHT22;12727;49.934;8.656;2022-09-29T18:58:23;8.40;99.90
24560;DHT22;12727;49.934;8.656;2022-09-29T19:00:51;8.30;99.90
24560;DHT22;12727;49.934;8.656;2022-09-29T19:03:19;8.20;99.90
24560;DHT22;12727;49.934;8.656;2022-09-29T19:05:46;8.20;99.90
24560;DHT22;12727;49.934;8.656;2022-09-29T19:08:13;8.20;99.90
24560;DHT22;12727;49.934;8.656;2022-09-29T19:10:40;8.20;99.90
24560;DHT22;12727;49.934;8.656;2022-09-29T19:13:11;8.10;99.90
24560;DHT22;12727;49.934;8.656;2022-09-29T19:15:39;8.00;99.90
24560;DHT22;12727;49.934;8.656;2022-09-29T19:18:06;8.00;99.90
24560;DHT22;12727;49.934;8.656;2022-09-29T19:20:32;7.90;99.90
24560;DHT22;12727;49.934;8.656;2022-09-29T19:22:59;7.90;99.90
24560;DHT22;12727;49.934;8.656;2022-09-29T19:25:29;7.90;99.90
24560;DHT22;12727;49.934;8.656;2022-09-29T19:27:55;7.90;99.90
24560;DHT22;12727;49.934;8.656;2022-09-29T19:30:22;7.90;99.90
24560;DHT22;12727;49.934;8.656;2022-09-29T19:32:49;7.90;99.90